Time;durP1;ratioP1;P1;durP2;ratioP2;P2;SDS_P1;SDS_P2;PMS_P1;PMS_P2;Temp;Humidity;BMP_temperature;BMP_pressure;BME280_temperature;BME280_humidity;BME280_pressure;Samples;Min_cycle;Max_cycle;Signal;HPM_P1;HPM_P2
2023/03/06 00:00:47;;;;;;;15.45;7.88;;;2.80;99.90;;;1.94;100.00;96474.06;4989034;28;20057;-39
2023/03/06 00:03:12;;;;;;;13.95;7.70;;;2.80;99.90;;;1.92;100.00;96474.13;4985465;28;20034;-39
2023/03/06 00:05:38;;;;;;;13.13;7.50;;;2.80;99.90;;;1.93;100.00;96470.59;4987626;28;20040;-39
2023/03/06 00:08:04;;;;;;;12.55;7.20;;;2.80;99.90;;;1.93;100.00;96475.81;4981982;28;20509;-39
2023/03/06 00:10:31;;;;;;;12.27;7.47;;;2.70;99.90;;;1.93;100.00;96465.41;4986815;28;20045;-39
2023/03/06 00:13:01;;;;;;;11.80;7.25;;;2.80;99.90;;;1.92;100.00;96474.13;4986965;28;20864;-39
2023/03/06 00:15:27;;;;;;;14.02;7.15;;;2.70;99.90;;;1.89;100.00;96467.22;4994607;28;20125;-39
2023/03/06 00:17:54;;;;;;;13.23;7.35;;;2.80;99.90;;;1.90;100.00;96465.44;4984110;28;20041;-39
2023/03/06 00:20:21;;;;;;;13.88;7.75;;;2.70;99.90;;;1.91;100.00;96470.63;4985242;28;20026;-39
2023/03/06 00:22:47;;;;;;;13.77;7.55;;;2.70;99.90;;;1.86;100.00;96456.00;4986806;28;20025;-39
2023/03/06 00:25:16;;;;;;;15.05;8.20;;;2.70;99.90;;;1.84;100.00;96452.56;4985549;28;20587;-39
2023/03/06 00:27:42;;;;;;;14.45;7.93;;;2.70;99.90;;;1.82;100.00;96451.75;4985523;28;20827;-39
2023/03/06 00:30:13;;;;;;;14.68;7.53;;;2.70;99.90;;;1.82;100.00;96454.34;4987119;28;20101;-39
2023/03/06 00:32:38;;;;;;;15.55;8.07;;;2.70;99.90;;;1.82;100.00;96447.41;4974005;28;20091;-39
2023/03/06 00:35:05;;;;;;;13.55;8.43;;;2.60;99.90;;;1.83;100.00;96443.94;4972097;28;20065;-39
2023/03/06 00:37:30;;;;;;;15.88;9.15;;;2.60;99.90;;;1.57;100.00;96410.59;4977569;28;20616;-39
2023/03/06 00:39:56;;;;;;;17.23;8.32;;;2.70;99.90;;;1.76;100.00;96444.03;4973344;28;20034;-39
2023/03/06 00:42:22;;;;;;;21.55;9.60;;;2.60;99.90;;;1.77;100.00;96449.22;4975498;28;23474;-39
2023/03/06 00:44:47;;;;;;;18.35;8.98;;;2.60;99.90;;;1.75;100.00;96440.59;4982919;28;20038;-39
2023/03/06 00:47:16;;;;;;;17.75;9.40;;;2.60;99.90;;;1.73;100.00;96431.13;4985322;28;20041;-39
2023/03/06 00:49:43;;;;;;;15.57;9.15;;;2.60;99.90;;;1.68;100.00;96438.97;4985983;28;20080;-39
2023/03/06 00:52:09;;;;;;;17.98;9.38;;;2.50;99.90;;;1.64;100.00;96438.19;4985830;28;20113;-39
2023/03/06 00:54:34;;;;;;;13.40;8.23;;;2.50;99.90;;;1.62;100.00;96437.34;4986236;28;20556;-39
2023/03/06 00:57:00;;;;;;;16.27;7.85;;;2.50;99.90;;;1.60;100.00;96428.72;4979557;28;20042;-40
2023/03/06 00:59:29;;;;;;;12.23;7.30;;;2.50;99.90;;;1.59;100.00;96424.41;4981501;28;20084;-39
2023/03/06 01:01:55;;;;;;;15.25;7.88;;;2.40;99.90;;;1.58;100.00;96427.91;4973990;28;20037;-40
2023/03/06 01:04:21;;;;;;;12.50;7.68;;;2.40;99.90;;;1.58;100.00;96422.72;4980974;28;20040;-39
2023/03/06 01:06:47;;;;;;;14.68;7.72;;;2.40;99.90;;;1.40;100.00;96389.22;4985697;28;20394;-39
2023/03/06 01:09:12;;;;;;;15.63;7.70;;;2.40;99.90;;;1.57;100.00;96415.78;4985807;28;20038;-40
2023/03/06 01:11:38;;;;;;;13.50;7.70;;;2.40;99.90;;;1.56;100.00;96410.59;4979491;28;20132;-39
2023/03/06 01:14:04;;;;;;;14.63;7.22;;;2.40;99.90;;;1.56;100.00;96408.84;4978588;28;20496;-39
2023/03/06 01:16:29;;;;;;;14.20;8.23;;;2.40;99.90;;;1.52;100.00;96400.25;4976916;28;20033;-39
2023/03/06 01:18:55;;;;;;;14.05;8.02;;;2.40;99.90;;;1.52;100.00;96402.84;4974192;28;20037;-39
2023/03/06 01:21:21;;;;;;;13.18;7.70;;;2.40;99.90;;;1.38;100.00;96388.41;4976188;28;20610;-40
2023/03/06 01:23:47;;;;;;;12.73;7.57;;;2.40;99.90;;;1.52;100.00;96402.00;4982232;28;20458;-39
2023/03/06 01:26:13;;;;;;;16.35;7.63;;;2.40;99.90;;;1.50;100.00;96403.78;4973662;28;20026;-39
2023/03/06 01:28:39;;;;;;;14.07;7.90;;;2.30;99.90;;;1.50;100.00;96394.22;4977096;28;20084;-39
2023/03/06 01:31:06;;;;;;;16.83;8.95;;;2.40;99.90;;;1.43;100.00;96396.97;4978123;28;20045;-40
2023/03/06 01:33:32;;;;;;;15.80;9.32;;;2.30;99.90;;;1.34;100.00;96401.41;5004585;22;20049;-38
2023/03/06 01:35:58;;;;;;;14.95;8.20;;;2.30;99.90;;;1.27;100.00;96402.41;5001767;28;20509;-38
2023/03/06 01:38:24;;;;;;;16.92;8.45;;;2.20;99.90;;;1.21;100.00;96396.47;5002252;28;20175;-38
2023/03/06 01:40:50;;;;;;;11.48;7.40;;;2.20;99.90;;;1.01;100.00;96365.63;4997689;28;20037;-38
2023/03/06 01:43:27;;;;;;;13.90;7.20;;;2.10;99.90;;;1.16;100.00;96391.34;4993082;28;20679;-38
2023/03/06 01:46:23;;;;;;;14.43;8.18;;;2.10;99.90;;;1.17;100.00;96392.19;4977259;28;20432;-38
2023/03/06 01:49:02;;;;;;;14.35;7.47;;;2.00;99.90;;;1.15;100.00;96379.25;4982947;28;20062;-38
2023/03/06 01:51:47;;;;;;;13.98;8.10;;;2.00;99.90;;;1.11;100.00;96370.66;4982954;28;20398;-38
2023/03/06 01:54:33;;;;;;;13.38;7.38;;;2.10;99.90;;;1.06;100.00;96350.81;4982145;28;20029;-38
2023/03/06 01:57:21;;;;;;;14.38;7.82;;;2.10;99.90;;;1.19;100.00;96367.09;4978524;28;20048;-38
2023/03/06 01:59:52;;;;;;;14.40;8.05;;;2.10;99.90;;;1.21;100.00;96371.34;4979182;28;20091;-38
2023/03/06 02:02:18;;;;;;;15.93;7.97;;;2.10;99.90;;;1.22;100.00;96362.69;4974894;28;20029;-38
2023/03/06 02:04:46;;;;;;;15.55;7.78;;;2.10;99.90;;;1.20;100.00;96353.19;4981028;28;20037;-38
2023/03/06 02:07:13;;;;;;;13.43;7.68;;;2.20;99.90;;;1.21;100.00;96340.19;4991653;28;20033;-39
2023/03/06 02:09:39;;;;;;;15.85;7.95;;;2.20;99.90;;;1.23;100.00;96337.56;4986583;28;20044;-38
2023/03/06 02:12:10;;;;;;;12.85;7.57;;;2.20;99.90;;;1.29;100.00;96346.13;4988164;28;20038;-38
2023/03/06 02:14:37;;;;;;;13.07;8.13;;;2.20;99.90;;;1.31;100.00;96335.69;4982306;28;20095;-39
2023/03/06 02:17:03;;;;;;;14.73;7.57;;;2.20;99.90;;;1.26;100.00;96333.19;4985432;28;20080;-38
2023/03/06 02:19:53;;;;;;;13.90;7.40;;;2.20;99.90;;;1.32;100.00;96335.66;4988975;28;20033;-39
2023/03/06 02:22:21;;;;;;;15.63;7.75;;;2.20;99.90;;;1.34;100.00;96330.44;4981668;28;20173;-39
2023/03/06 02:25:09;;;;;;;13.93;7.43;;;2.20;99.90;;;1.33;100.00;96329.59;4981919;28;20064;-39
2023/03/06 02:27:35;;;;;;;16.00;8.48;;;2.20;99.90;;;1.33;100.00;96332.19;4984919;28;20041;-39
2023/03/06 02:30:06;;;;;;;13.93;7.22;;;2.20;99.90;;;1.31;100.00;96326.16;4989970;28;20056;-38
2023/03/06 02:32:32;;;;;;;12.57;7.00;;;2.20;99.90;;;1.29;100.00;96312.34;4991559;28;20878;-38
2023/03/06 02:34:58;;;;;;;15.77;8.20;;;2.20;99.90;;;1.13;100.00;96285.78;4982757;28;20037;-39
2023/03/06 02:37:26;;;;;;;15.90;7.28;;;2.20;99.90;;;1.28;100.00;96307.19;4982371;28;20034;-39
2023/03/06 02:40:08;;;;;;;12.68;7.20;;;2.20;99.90;;;1.27;100.00;96314.09;4987184;28;20301;-39
2023/03/06 02:42:34;;;;;;;14.73;7.70;;;2.20;99.90;;;1.27;100.00;96305.47;4949315;28;20642;-38
2023/03/06 02:45:03;;;;;;;15.38;7.47;;;2.10;99.90;;;1.24;100.00;96313.28;4981800;28;20061;-38
2023/03/06 02:47:28;;;;;;;12.45;7.13;;;2.10;99.90;;;1.23;100.00;96309.84;4987405;28;20038;-38
2023/03/06 02:49:54;;;;;;;15.73;7.97;;;2.10;99.90;;;1.23;100.00;96302.06;4983148;28;20076;-39
2023/03/06 02:52:20;;;;;;;16.45;7.82;;;2.10;99.90;;;1.24;100.00;96297.72;4986272;28;20038;-38
2023/03/06 02:54:45;;;;;;;13.98;7.72;;;2.10;99.90;;;1.07;100.00;96279.84;4984785;28;20026;-39
2023/03/06 02:57:11;;;;;;;12.05;7.38;;;2.10;99.90;;;1.21;100.00;96302.97;4984907;28;20146;-38
2023/03/06 02:59:37;;;;;;;12.18;6.95;;;2.10;99.90;;;1.23;100.00;96301.22;4988943;28;20080;-39
2023/03/06 03:02:03;;;;;;;11.10;7.15;;;2.10;99.90;;;1.23;100.00;96302.06;4983524;28;20049;-39
2023/03/06 03:04:28;;;;;;;17.50;8.10;;;2.10;99.90;;;1.18;100.00;96288.28;4982266;28;20469;-39
2023/03/06 03:06:54;;;;;;;15.68;7.90;;;2.10;99.90;;;1.13;100.00;96296.19;4983620;28;20053;-38
2023/03/06 03:09:20;;;;;;;16.30;7.70;;;2.10;99.90;;;1.10;100.00;96292.78;4981815;28;20042;-39
2023/03/06 03:11:46;;;;;;;15.95;8.23;;;2.00;99.90;;;1.11;100.00;96297.06;4981911;28;20033;-38
2023/03/06 03:14:11;;;;;;;11.38;7.20;;;2.00;99.90;;;1.11;100.00;96297.94;4978615;28;20042;-38
2023/03/06 03:16:37;;;;;;;12.85;7.13;;;2.00;99.90;;;1.13;100.00;96295.31;4982893;28;20632;-38
2023/03/06 03:19:03;;;;;;;12.90;7.50;;;2.00;99.90;;;1.12;100.00;96291.84;4983534;28;20117;-38
2023/03/06 03:21:28;;;;;;;10.00;6.35;;;2.00;99.90;;;1.14;100.00;96284.03;4985988;28;20474;-38
2023/03/06 03:23:54;;;;;;;12.90;7.68;;;2.00;99.90;;;1.11;100.00;96290.16;4980595;28;20033;-39
2023/03/06 03:26:21;;;;;;;13.18;7.10;;;2.00;99.90;;;1.13;100.00;96296.19;4984672;28;20058;-39
2023/03/06 03:28:47;;;;;;;13.63;7.00;;;2.00;99.90;;;1.13;100.00;96287.50;4988095;28;20049;-39
2023/03/06 03:31:13;;;;;;;13.30;7.18;;;2.00;99.90;;;1.12;100.00;96285.81;4978819;28;20477;-38
2023/03/06 03:33:40;;;;;;;13.90;7.82;;;2.00;99.90;;;1.13;100.00;96290.09;4978409;28;20027;-38
2023/03/06 03:36:06;;;;;;;14.68;7.75;;;2.00;99.90;;;1.11;100.00;96281.50;4976160;28;20078;-38
2023/03/06 03:38:33;;;;;;;15.73;8.13;;;2.00;99.90;;;1.13;100.00;96277.13;4983611;28;20547;-39
2023/03/06 03:41:02;;;;;;;15.30;7.78;;;2.00;99.90;;;1.05;100.00;96274.66;4978651;28;20040;-38
2023/03/06 03:43:28;;;;;;;13.48;7.38;;;2.00;99.90;;;1.12;100.00;96272.84;4976262;28;20033;-38
2023/03/06 03:45:54;;;;;;;16.90;7.38;;;2.00;99.90;;;1.08;100.00;96271.19;4970186;28;20036;-38
2023/03/06 03:48:19;;;;;;;12.25;7.07;;;2.00;99.90;;;1.11;100.00;96277.19;4976614;28;20140;-38
2023/03/06 03:50:45;;;;;;;13.55;7.82;;;2.00;99.90;;;1.13;100.00;96271.94;4980660;28;20041;-39
2023/03/06 03:53:11;;;;;;;12.98;7.80;;;2.00;99.90;;;1.08;100.00;96271.19;4982256;28;20030;-38
2023/03/06 03:55:37;;;;;;;14.80;7.55;;;2.00;99.90;;;1.10;100.00;96279.78;4978690;28;20045;-39
2023/03/06 03:58:03;;;;;;;12.85;7.22;;;2.00;99.90;;;1.08;100.00;96276.38;4978009;28;20034;-39
2023/03/06 04:00:29;;;;;;;12.60;7.70;;;2.00;99.90;;;1.06;100.00;96268.59;4975682;28;20193;-39
2023/03/06 04:02:54;;;;;;;14.07;8.05;;;2.00;99.90;;;1.01;100.00;96251.41;4974237;28;20642;-39
2023/03/06 04:05:20;;;;;;;14.30;7.88;;;2.00;99.90;;;1.07;100.00;96261.66;4977695;28;20106;-39
2023/03/06 04:07:46;;;;;;;14.55;8.43;;;1.90;99.90;;;1.01;100.00;96254.00;4976018;28;20613;-39
2023/03/06 04:10:12;;;;;;;14.30;7.80;;;1.90;99.90;;;1.01;100.00;96264.38;4973650;28;20061;-39
2023/03/06 04:12:38;;;;;;;16.77;8.02;;;1.90;99.90;;;1.02;100.00;96258.28;4974255;28;20127;-38
2023/03/06 04:15:05;;;;;;;14.75;7.82;;;1.90;99.90;;;1.02;100.00;96245.31;4979033;28;20057;-39
2023/03/06 04:17:34;;;;;;;13.23;7.72;;;1.90;99.90;;;1.01;100.00;96247.06;4971698;28;20037;-38
2023/03/06 04:20:02;;;;;;;16.05;8.07;;;1.90;99.90;;;1.02;100.00;96250.50;4974321;28;20457;-38
2023/03/06 04:22:28;;;;;;;12.20;7.13;;;1.90;99.90;;;1.02;100.00;96251.34;4978840;28;20088;-38
2023/03/06 04:24:54;;;;;;;13.57;7.47;;;1.90;99.90;;;1.02;100.00;96256.53;4973216;28;20674;-38
2023/03/06 04:27:20;;;;;;;11.82;6.57;;;1.90;99.90;;;1.05;100.00;96250.47;4975955;28;20042;-38
2023/03/06 04:29:45;;;;;;;12.77;7.57;;;1.90;99.90;;;1.04;100.00;96240.94;4976626;28;20521;-38
2023/03/06 04:32:13;;;;;;;12.57;7.03;;;1.90;99.90;;;1.02;100.00;96251.34;4972973;28;22034;-38
2023/03/06 04:34:39;;;;;;;13.85;7.35;;;1.90;99.90;;;1.03;100.00;96249.63;4970915;28;20049;-39
2023/03/06 04:37:05;;;;;;;10.43;6.85;;;1.90;99.90;;;0.87;100.00;96216.16;4973833;28;20061;-38
2023/03/06 04:39:30;;;;;;;13.90;7.82;;;1.90;99.90;;;0.86;100.00;96201.47;4977867;28;20398;-38
2023/03/06 04:41:56;;;;;;;12.43;7.20;;;1.90;99.90;;;1.05;100.00;96235.72;4974031;28;20509;-39
2023/03/06 04:44:22;;;;;;;14.73;7.18;;;1.90;99.90;;;1.02;100.00;96240.13;4978650;28;20087;-38
2023/03/06 04:46:47;;;;;;;13.73;6.85;;;1.90;99.90;;;1.04;100.00;96233.16;4984057;28;20508;-38
2023/03/06 04:49:13;;;;;;;12.88;7.22;;;1.90;99.90;;;1.06;100.00;96239.16;4989130;28;20025;-38
2023/03/06 04:51:39;;;;;;;11.27;6.97;;;1.90;99.90;;;1.06;100.00;96240.03;4981312;28;20614;-38
2023/03/06 04:54:04;;;;;;;12.43;7.18;;;2.00;99.90;;;1.04;100.00;96228.84;4982788;28;20026;-38
2023/03/06 04:56:30;;;;;;;13.90;7.68;;;2.00;99.90;;;1.04;100.00;96233.16;4981053;28;20728;-38
2023/03/06 04:58:56;;;;;;;13.20;7.43;;;2.00;99.90;;;1.02;100.00;96229.72;4979287;28;20033;-38
2023/03/06 05:01:22;;;;;;;12.43;7.45;;;1.90;99.90;;;1.00;100.00;96229.75;4982593;28;20088;-38
2023/03/06 05:03:48;;;;;;;13.70;7.70;;;1.90;99.90;;;0.99;100.00;96224.59;4985490;28;20507;-38
2023/03/06 05:06:14;;;;;;;14.05;7.50;;;1.90;99.90;;;1.00;100.00;96234.94;4975676;28;20034;-39
2023/03/06 05:08:40;;;;;;;12.82;7.25;;;1.90;99.90;;;1.01;100.00;96230.63;4975561;28;20060;-38
2023/03/06 05:11:06;;;;;;;13.30;7.18;;;1.90;99.90;;;1.02;100.00;96232.31;4975151;28;20129;-38
2023/03/06 05:13:32;;;;;;;16.27;8.05;;;1.90;99.90;;;1.01;100.00;96225.44;4980838;28;20505;-38
2023/03/06 05:16:03;;;;;;;15.75;7.72;;;1.90;99.90;;;0.99;100.00;96232.38;4975463;28;21993;-38
2023/03/06 05:18:29;;;;;;;12.83;7.87;;;1.90;99.90;;;1.02;100.00;96224.53;4974797;28;20045;-38
2023/03/06 05:20:58;;;;;;;12.25;7.28;;;1.90;99.90;;;1.04;100.00;96228.84;4974092;28;20719;-39
2023/03/06 05:23:31;;;;;;;13.27;7.45;;;2.00;99.90;;;1.02;100.00;96221.94;4973183;28;20034;-39
2023/03/06 05:25:58;;;;;;;11.20;6.97;;;1.90;99.90;;;0.96;100.00;96215.13;4972705;28;20687;-38
2023/03/06 05:28:24;;;;;;;12.35;7.28;;;1.90;99.90;;;0.96;100.00;96225.50;4980076;28;20356;-38
2023/03/06 05:30:50;;;;;;;14.77;7.28;;;1.90;99.90;;;0.93;100.00;96226.44;4968396;28;20374;-38
2023/03/06 05:33:16;;;;;;;14.07;7.57;;;1.90;99.90;;;0.93;100.00;96223.84;4980425;28;20490;-38
2023/03/06 05:35:47;;;;;;;13.75;7.55;;;1.90;99.90;;;0.92;100.00;96224.72;4986436;28;20122;-38
2023/03/06 05:38:14;;;;;;;15.38;8.05;;;1.90;99.90;;;0.91;100.00;96216.94;4984180;28;20041;-38
2023/03/06 05:40:42;;;;;;;15.05;7.78;;;1.90;99.90;;;0.90;100.00;96217.84;4983497;28;20049;-39
2023/03/06 05:43:09;;;;;;;16.17;7.35;;;1.90;99.90;;;0.92;100.00;96218.66;4982619;28;20123;-38
2023/03/06 05:45:35;;;;;;;13.73;7.95;;;1.80;99.90;;;0.93;100.00;96215.16;4984616;28;20390;-39
2023/03/06 05:48:01;;;;;;;15.70;7.70;;;1.90;99.90;;;0.95;100.00;96216.88;4986369;28;23656;-39
2023/03/06 05:50:27;;;;;;;14.48;7.88;;;1.90;99.90;;;0.87;100.00;96199.72;4982177;28;20061;-39
2023/03/06 05:52:52;;;;;;;12.57;7.75;;;1.90;99.90;;;0.94;100.00;96209.97;4993426;28;20189;-38
2023/03/06 05:55:20;;;;;;;12.60;7.90;;;1.90;99.90;;;1.01;100.00;96208.13;4993822;28;20038;-39
2023/03/06 05:57:46;;;;;;;13.15;7.45;;;1.90;99.90;;;0.98;100.00;96215.09;4983793;28;20026;-39
2023/03/06 06:00:14;;;;;;;13.88;7.80;;;1.90;99.90;;;0.95;100.00;96214.28;4978009;28;20045;-39
2023/03/06 06:02:40;;;;;;;13.60;7.80;;;1.90;99.90;;;0.95;100.00;96218.59;4980194;28;20029;-39
2023/03/06 06:05:07;;;;;;;14.43;8.00;;;1.90;99.90;;;0.92;100.00;96211.72;4983230;28;20049;-39
2023/03/06 06:07:33;;;;;;;14.15;7.55;;;1.90;99.90;;;0.95;100.00;96203.00;4977710;28;20042;-39
2023/03/06 06:09:59;;;;;;;11.85;7.20;;;1.90;99.90;;;1.04;100.00;96217.56;4985852;28;20508;-39
2023/03/06 06:12:26;;;;;;;11.85;6.97;;;2.00;99.90;;;1.02;100.00;96211.56;4980551;28;20048;-39
2023/03/06 06:14:52;;;;;;;13.82;7.28;;;2.00;99.90;;;1.10;100.00;96212.28;4984173;28;20065;-39
2023/03/06 06:17:17;;;;;;;13.68;7.75;;;2.00;99.90;;;1.13;100.00;96217.41;4983545;28;20109;-39
2023/03/06 06:19:43;;;;;;;11.48;6.85;;;2.00;99.90;;;1.17;100.00;96216.47;4985474;28;20030;-39
2023/03/06 06:22:09;;;;;;;14.38;7.93;;;2.10;99.90;;;1.12;100.00;96211.34;4977206;28;20394;-39
2023/03/06 06:24:35;;;;;;;14.63;7.03;;;2.10;99.90;;;1.13;100.00;96207.00;4984026;28;20113;-39
2023/03/06 06:27:01;;;;;;;11.98;6.88;;;2.10;99.90;;;1.19;100.00;96227.69;4984854;28;20450;-39
2023/03/06 06:29:27;;;;;;;15.50;7.55;;;2.10;99.90;;;1.22;100.00;96226.75;4985802;28;20076;-39
2023/03/06 06:31:54;;;;;;;13.20;7.90;;;2.10;99.90;;;1.23;100.00;96221.53;4982323;28;20053;-39
2023/03/06 06:34:21;;;;;;;12.55;7.60;;;2.10;99.90;;;1.10;100.00;96194.09;4981654;28;20037;-39
2023/03/06 06:36:48;;;;;;;12.40;6.97;;;2.20;99.90;;;1.29;100.00;96225.75;4980960;28;20038;-39
2023/03/06 06:39:16;;;;;;;14.60;7.38;;;2.20;99.90;;;1.30;100.00;96225.72;4981130;28;20130;-39
2023/03/06 06:41:42;;;;;;;13.00;6.70;;;2.20;99.90;;;1.35;100.00;96217.88;4983413;28;20060;-39
2023/03/06 06:44:13;;;;;;;13.00;7.22;;;2.20;99.90;;;1.32;100.00;96218.75;4987800;28;20022;-39
2023/03/06 06:46:39;;;;;;;16.13;7.55;;;2.30;99.90;;;1.39;100.00;96223.84;4981614;28;20153;-39
2023/03/06 06:49:05;;;;;;;15.77;7.90;;;2.30;99.90;;;1.45;100.00;96229.75;4989653;28;20073;-38
2023/03/06 06:51:32;;;;;;;14.13;7.57;;;2.30;99.90;;;1.50;100.00;96221.91;4986179;28;20116;-39
2023/03/06 06:53:59;;;;;;;14.85;8.25;;;2.40;99.90;;;1.56;100.00;96221.75;4987446;28;20839;-39
2023/03/06 06:56:25;;;;;;;12.65;7.47;;;2.40;99.90;;;1.64;100.00;96221.63;4986240;28;20798;-39
2023/03/06 06:58:55;;;;;;;13.88;7.82;;;2.50;99.90;;;1.70;100.00;96230.13;4986557;28;20422;-39
2023/03/06 07:01:21;;;;;;;12.98;7.80;;;2.60;99.90;;;1.74;100.00;96232.66;4989581;28;20030;-39
2023/03/06 07:03:47;;;;;;;19.58;9.02;;;2.60;99.90;;;1.74;100.00;96224.88;4991968;28;20029;-40
2023/03/06 07:06:13;;;;;;;15.00;7.68;;;2.60;99.90;;;1.82;100.00;96229.03;4990575;28;20037;-40
2023/03/06 07:08:39;;;;;;;14.88;8.25;;;2.70;99.90;;;1.77;100.00;96219.63;4984351;28;20397;-40
2023/03/06 07:11:18;;;;;;;13.45;7.32;;;2.70;99.90;;;1.88;100.00;96230.63;4992772;28;20048;-40
2023/03/06 07:13:45;;;;;;;11.05;6.80;;;2.70;99.90;;;1.92;100.00;96224.50;4994825;28;20177;-40
2023/03/06 07:16:11;;;;;;;14.15;8.10;;;2.80;99.90;;;1.93;100.00;96234.00;4994723;28;20038;-40
2023/03/06 07:18:37;;;;;;;14.65;7.88;;;2.80;99.90;;;1.98;100.00;96234.75;4994779;28;20546;-40
2023/03/06 07:21:03;;;;;;;14.43;8.10;;;2.80;99.90;;;1.98;100.00;96237.34;4992039;28;20030;-40
2023/03/06 07:23:29;;;;;;;13.18;7.85;;;2.90;99.90;;;2.05;100.00;96238.09;4991505;28;20038;-39
2023/03/06 07:25:56;;;;;;;15.95;8.13;;;2.90;99.90;;;2.06;100.00;96240.66;4993046;28;20123;-40
2023/03/06 07:28:22;;;;;;;12.98;7.70;;;2.90;99.90;;;2.15;100.00;96238.72;4991035;28;20489;-39
2023/03/06 07:30:48;;;;;;;14.45;8.23;;;3.00;99.90;;;2.22;99.38;96233.34;4987617;28;20030;-39
2023/03/06 07:33:15;;;;;;;16.45;8.00;;;3.10;99.90;;;2.21;99.05;96236.00;5009089;22;20026;-41
2023/03/06 07:35:41;;;;;;;16.20;7.65;;;3.20;99.90;;;2.39;98.77;96238.19;4990610;28;20044;-41
2023/03/06 07:38:07;;;;;;;15.07;7.35;;;3.20;99.90;;;2.46;98.21;96244.94;4994083;28;20069;-41
2023/03/06 07:40:33;;;;;;;15.35;7.93;;;3.30;99.90;;;2.51;96.08;96243.97;4993399;28;20541;-41
2023/03/06 07:42:59;;;;;;;14.85;8.05;;;3.40;99.90;;;2.52;95.15;96250.91;4994627;28;20486;-41
2023/03/06 07:45:25;;;;;;;12.75;7.78;;;3.40;99.90;;;2.43;94.60;96245.00;4989938;28;20038;-41
2023/03/06 07:47:52;;;;;;;15.50;7.85;;;3.40;99.90;;;2.48;95.80;96248.38;4991517;28;20042;-41
2023/03/06 07:50:19;;;;;;;13.35;7.55;;;3.40;99.90;;;2.47;94.76;96253.59;4992595;28;20034;-41
2023/03/06 07:52:46;;;;;;;12.75;7.15;;;3.40;99.90;;;2.54;94.83;96254.31;4991484;28;20040;-41
2023/03/06 07:55:12;;;;;;;15.70;7.18;;;3.40;99.90;;;2.48;93.98;96252.72;4992914;28;20490;-41
2023/03/06 07:57:38;;;;;;;18.38;8.15;;;3.40;99.90;;;2.55;94.24;96250.81;4985200;28;20096;-41
2023/03/06 08:00:11;;;;;;;12.73;7.03;;;3.50;99.90;;;2.61;92.77;96253.28;4990957;28;20057;-41
2023/03/06 08:02:37;;;;;;;15.20;7.75;;;3.50;99.90;;;2.63;93.04;96243.69;4991928;28;20061;-41
2023/03/06 08:05:03;;;;;;;13.00;7.35;;;3.60;99.90;;;2.85;93.57;96260.50;4992745;28;20022;-41
2023/03/06 08:07:30;;;;;;;13.75;7.22;;;3.70;99.90;;;2.92;93.48;96262.94;4992052;28;20049;-41
2023/03/06 08:09:55;;;;;;;11.18;6.97;;;3.80;99.90;;;2.95;91.03;96258.53;4991851;28;20567;-44
2023/03/06 08:12:21;;;;;;;15.27;6.82;;;3.90;99.90;;;3.15;91.31;96257.16;4989306;28;20461;-41
2023/03/06 08:14:47;;;;;;;11.63;7.35;;;4.00;99.90;;;3.29;90.17;96257.66;4987947;28;20065;-41
2023/03/06 08:17:12;;;;;;;12.40;5.97;;;4.20;99.90;;;3.42;88.23;96258.19;4991887;28;20084;-41
2023/03/06 08:19:38;;;;;;;15.90;7.15;;;4.30;99.90;;;3.57;87.45;96252.56;4992014;28;20520;-41
2023/03/06 08:22:05;;;;;;;11.48;6.68;;;4.40;99.90;;;3.69;86.24;96253.94;4995864;28;20018;-41
2023/03/06 08:24:32;;;;;;;12.45;6.95;;;4.60;99.90;;;3.80;83.88;96254.53;4989114;28;20029;-41
2023/03/06 08:26:58;;;;;;;11.00;6.65;;;4.70;99.90;;;3.82;82.13;96251.84;4988516;28;20065;-41
2023/03/06 08:29:23;;;;;;;9.30;5.95;;;4.80;99.90;;;4.01;82.42;96257.41;4987898;28;20567;-41
2023/03/06 08:31:49;;;;;;;12.05;6.18;;;4.90;99.90;;;4.03;81.65;96254.75;4986923;28;20038;-41
2023/03/06 08:34:19;;;;;;;11.50;6.60;;;5.00;99.90;;;3.89;80.30;96262.97;4987472;28;20608;-40
2023/03/06 08:36:45;;;;;;;16.13;6.25;;;4.90;99.90;;;3.77;80.04;96241.56;4990709;28;20030;-41
2023/03/06 08:39:11;;;;;;;10.10;5.90;;;4.90;99.90;;;3.97;81.22;96246.19;4990474;28;20045;-40
2023/03/06 08:41:37;;;;;;;11.02;6.55;;;4.90;99.90;;;4.00;80.55;96263.50;4992215;28;20058;-41
2023/03/06 08:44:04;;;;;;;9.80;6.18;;;5.00;99.90;;;4.10;81.55;96259.75;4990418;28;20030;-41
2023/03/06 08:46:31;;;;;;;12.88;6.13;;;5.00;99.90;;;4.26;81.42;96270.56;5003890;28;20474;-41
2023/03/06 08:48:57;;;;;;;10.43;5.88;;;5.10;99.90;;;4.47;80.17;96269.06;4983825;28;20050;-41
2023/03/06 08:51:23;;;;;;;14.02;6.53;;;5.30;99.90;;;4.42;80.20;96262.28;4984367;28;20119;-41
2023/03/06 08:53:50;;;;;;;10.13;5.72;;;5.30;99.90;;;4.46;78.84;96266.50;4989995;28;20048;-41
2023/03/06 08:56:25;;;;;;;11.48;6.13;;;5.40;99.90;;;4.74;77.14;96272.56;4991928;28;20033;-41
2023/03/06 08:58:52;;;;;;;12.50;5.85;;;5.50;99.90;;;4.77;77.84;96267.25;4987878;28;20022;-41
2023/03/06 09:01:25;;;;;;;12.07;6.38;;;5.70;99.90;;;4.96;73.48;96267.50;4992252;28;20022;-41
2023/03/06 09:03:54;;;;;;;10.82;5.97;;;5.80;99.90;;;4.89;75.67;96270.38;4991872;28;20057;-41
2023/03/06 09:06:21;;;;;;;10.52;5.78;;;5.80;99.90;;;4.97;73.18;96268.34;4989167;28;20034;-41
2023/03/06 09:08:47;;;;;;;10.35;6.00;;;5.90;99.90;;;4.81;74.50;96264.53;4992467;28;20111;-41
2023/03/06 09:11:14;;;;;;;12.07;6.10;;;5.80;99.90;;;4.78;75.90;96282.00;4991292;28;20026;-41
2023/03/06 09:13:42;;;;;;;11.60;6.07;;;5.80;99.90;;;4.86;74.15;96267.84;4986760;28;20559;-41
2023/03/06 09:16:09;;;;;;;9.77;5.65;;;5.80;99.90;;;4.84;75.86;96262.66;4984285;28;20041;-38
2023/03/06 09:18:36;;;;;;;11.95;6.03;;;5.80;99.90;;;4.70;73.36;96276.19;4989988;28;20169;-42
2023/03/06 09:21:03;;;;;;;10.43;6.00;;;5.70;99.90;;;4.62;74.77;96272.97;4986085;28;20034;-42
2023/03/06 09:23:29;;;;;;;8.73;5.50;;;5.60;99.90;;;4.69;73.78;96273.63;4993947;28;20036;-42
2023/03/06 09:25:57;;;;;;;9.15;5.65;;;5.60;99.90;;;4.70;76.35;96273.59;4984344;28;20034;-43
2023/03/06 09:28:24;;;;;;;7.88;5.20;;;5.60;99.90;;;4.70;74.23;96270.97;4991520;28;20037;-42
2023/03/06 09:30:50;;;;;;;9.13;5.70;;;5.60;99.90;;;4.71;77.04;96277.88;4992530;28;20658;-42
2023/03/06 09:33:17;;;;;;;9.30;5.60;;;5.60;99.90;;;4.82;76.47;96280.16;4993615;28;20037;-42
2023/03/06 09:35:53;;;;;;;9.55;5.40;;;5.60;99.90;;;4.80;74.90;96281.13;4988601;28;20030;-41
2023/03/06 09:38:22;;;;;;;8.77;5.43;;;5.70;99.90;;;4.65;74.48;96280.72;4992239;28;20065;-42
2023/03/06 09:41:16;;;;;;;10.20;5.97;;;5.60;99.90;;;4.62;74.34;96282.56;4984034;28;20120;-43
2023/03/06 09:43:46;;;;;;;10.20;6.03;;;5.60;99.90;;;4.44;75.83;96281.38;4985927;28;20551;-42
2023/03/06 09:46:28;;;;;;;10.02;6.05;;;5.40;99.90;;;4.49;76.90;96280.31;4991047;28;20445;-42
2023/03/06 09:49:12;;;;;;;9.90;5.35;;;5.50;99.90;;;4.69;76.37;96284.91;4992321;28;20044;-43
2023/03/06 09:52:25;;;;;;;10.50;5.18;;;5.40;99.90;;;4.62;76.60;96283.41;4993848;28;20036;-42
2023/03/06 09:55:02;;;;;;;11.05;5.88;;;5.50;99.90;;;4.69;76.54;96278.84;4984460;28;20192;-42
2023/03/06 09:57:35;;;;;;;10.77;5.97;;;5.50;99.90;;;4.67;77.78;96278.91;4985416;28;20196;-42
2023/03/06 10:00:11;;;;;;;11.95;6.25;;;5.60;99.90;;;4.62;78.01;96280.78;4983303;28;20051;-42
2023/03/06 10:02:55;;;;;;;10.90;6.32;;;5.50;99.90;;;4.56;79.65;96273.16;4981643;28;20037;-43
2023/03/06 10:05:34;;;;;;;11.93;5.90;;;5.50;99.90;;;4.52;80.93;96277.63;4992982;28;20351;-42
2023/03/06 10:08:05;;;;;;;9.15;5.65;;;5.40;99.90;;;4.40;80.22;96285.81;5004584;28;20030;-42
2023/03/06 10:10:49;;;;;;;10.57;5.97;;;5.40;99.90;;;4.37;80.33;96283.31;4991418;28;20042;-42
2023/03/06 10:13:28;;;;;;;9.20;5.85;;;5.30;99.90;;;4.35;80.61;96278.13;4983739;28;20045;-42
2023/03/06 10:16:21;;;;;;;10.00;6.07;;;5.30;99.90;;;4.40;81.07;96278.00;4989819;28;20045;-42
2023/03/06 10:18:46;;;;;;;11.18;5.80;;;5.30;99.90;;;4.31;79.11;96275.66;4995419;28;20038;-42
2023/03/06 10:21:52;;;;;;;12.82;5.70;;;5.30;99.90;;;4.49;81.14;96276.88;4996490;28;20030;-41
2023/03/06 10:24:31;;;;;;;15.80;5.90;;;5.30;99.90;;;4.64;80.05;96281.59;4991265;28;20498;-42